createdAt,value
2018-11-14T00:00:21.171Z,4.90
2018-11-14T00:02:48.553Z,4.43
2018-11-14T00:05:16.094Z,6.73
2018-11-14T00:07:43.503Z,3.93
2018-11-14T00:10:11.161Z,5.40
2018-11-14T00:12:38.524Z,7.07
2018-11-14T00:15:07.224Z,3.63
2018-11-14T00:17:34.602Z,5.40
2018-11-14T00:20:01.949Z,3.80
2018-11-14T00:22:29.309Z,7.13
2018-11-14T00:24:56.732Z,7.10
2018-11-14T00:27:24.091Z,4.03
2018-11-14T00:29:51.423Z,3.17
2018-11-14T00:32:18.790Z,6.70
2018-11-14T00:34:46.238Z,4.90
2018-11-14T00:37:13.559Z,9.70
2018-11-14T00:39:40.899Z,6.50
2018-11-14T00:42:08.278Z,5.80
2018-11-14T00:44:35.608Z,5.03
2018-11-14T00:47:02.951Z,3.30
2018-11-14T00:49:30.321Z,6.07
2018-11-14T00:51:57.659Z,4.80
2018-11-14T00:54:25.019Z,11.27
2018-11-14T00:56:52.360Z,14.60
2018-11-14T00:59:19.746Z,4.40
2018-11-14T01:01:47.231Z,8.20
2018-11-14T01:04:14.549Z,7.00
2018-11-14T01:06:41.883Z,10.60
2018-11-14T01:09:10.742Z,8.10
2018-11-14T01:11:38.163Z,7.73
2018-11-14T01:14:05.819Z,3.70
2018-11-14T01:16:33.156Z,5.27
2018-11-14T01:19:00.532Z,6.80
2018-11-14T01:21:27.985Z,7.20
2018-11-14T01:23:55.320Z,5.23
2018-11-14T01:26:22.651Z,4.40
2018-11-14T01:28:50.052Z,5.73
2018-11-14T01:31:17.403Z,5.10
2018-11-14T01:33:44.807Z,4.53
2018-11-14T01:36:12.151Z,5.23
2018-11-14T01:38:39.965Z,4.85
2018-11-14T01:41:07.344Z,6.50
2018-11-14T01:43:34.687Z,11.50
2018-11-14T01:46:02.032Z,3.60
2018-11-14T01:48:29.520Z,6.60
2018-11-14T01:50:56.852Z,4.53
2018-11-14T01:53:24.206Z,8.43
2018-11-14T01:55:51.547Z,2.77
2018-11-14T01:58:18.910Z,6.63
2018-11-14T02:00:46.242Z,7.47
2018-11-14T02:03:13.618Z,6.03
2018-11-14T02:05:40.964Z,11.23
2018-11-14T02:08:08.335Z,4.67
2018-11-14T02:10:35.663Z,8.17
2018-11-14T02:13:03.029Z,4.33
2018-11-14T02:15:30.374Z,10.03
2018-11-14T02:17:57.735Z,4.33
2018-11-14T02:20:25.076Z,5.47
2018-11-14T02:22:52.418Z,3.80
2018-11-14T02:25:19.786Z,3.63
2018-11-14T02:27:47.128Z,3.30
2018-11-14T02:30:16.858Z,4.87
2018-11-14T02:32:44.182Z,17.30
2018-11-14T02:35:11.667Z,3.33
2018-11-14T02:37:39.738Z,4.07
2018-11-14T02:40:08.108Z,5.80
2018-11-14T02:42:35.441Z,3.50
2018-11-14T02:45:02.801Z,3.93
2018-11-14T02:47:30.145Z,3.67
2018-11-14T02:49:57.508Z,5.03
2018-11-14T02:52:24.832Z,4.93
2018-11-14T02:54:52.205Z,8.63
2018-11-14T02:57:19.542Z,6.97
2018-11-14T02:59:46.891Z,7.50
2018-11-14T03:02:14.236Z,3.53
2018-11-14T03:04:41.594Z,5.83
2018-11-14T03:07:08.928Z,5.30
2018-11-14T03:09:36.287Z,2.57
2018-11-14T03:12:03.722Z,6.30
2018-11-14T03:14:31.106Z,9.10
2018-11-14T03:16:58.457Z,6.80
2018-11-14T03:19:25.824Z,5.53
2018-11-14T03:21:53.196Z,8.60
2018-11-14T03:24:20.552Z,3.50
2018-11-14T03:26:47.879Z,3.60
2018-11-14T03:29:15.245Z,4.17
2018-11-14T03:31:42.582Z,2.97
2018-11-14T03:34:09.969Z,3.37
2018-11-14T03:36:37.308Z,3.97
2018-11-14T03:39:06.860Z,3.27
2018-11-14T03:41:34.255Z,4.27
2018-11-14T03:44:01.625Z,10.00
2018-11-14T03:46:28.955Z,2.57
2018-11-14T03:48:56.372Z,5.10
2018-11-14T03:51:23.720Z,4.50
2018-11-14T03:53:51.134Z,4.90
2018-11-14T03:56:18.467Z,2.87
2018-11-14T03:58:45.831Z,2.50
2018-11-14T04:01:13.163Z,2.53
2018-11-14T04:03:40.557Z,2.83
2018-11-14T04:06:07.883Z,4.23
2018-11-14T04:08:35.237Z,6.40
2018-11-14T04:11:02.577Z,4.25
2018-11-14T04:13:29.964Z,10.20
2018-11-14T04:15:57.305Z,3.93
2018-11-14T04:18:24.657Z,2.67
2018-11-14T04:20:52.014Z,3.90
2018-11-14T04:23:19.350Z,8.07
2018-11-14T04:25:46.712Z,3.30
2018-11-14T04:28:14.035Z,3.13
2018-11-14T04:30:41.403Z,4.10
2018-11-14T04:33:08.764Z,5.47
2018-11-14T04:35:36.127Z,4.00
2018-11-14T04:38:03.479Z,3.83
2018-11-14T04:40:30.848Z,3.63
2018-11-14T04:42:58.197Z,3.00
2018-11-14T04:45:26.269Z,2.90
2018-11-14T04:47:53.797Z,2.90
2018-11-14T04:50:22.661Z,3.53
2018-11-14T04:52:50.515Z,3.00
2018-11-14T04:55:19.085Z,4.00
2018-11-14T04:57:46.563Z,2.93
2018-11-14T05:00:14.830Z,3.97
2018-11-14T05:02:43.065Z,2.70
2018-11-14T05:05:12.011Z,4.53
2018-11-14T05:07:39.529Z,3.40
2018-11-14T05:10:07.896Z,4.23
2018-11-14T05:12:35.282Z,7.50
2018-11-14T05:15:02.671Z,2.73
2018-11-14T05:17:30.016Z,5.77
2018-11-14T05:19:57.379Z,3.20
2018-11-14T05:22:24.731Z,30.70
2018-11-14T05:24:52.099Z,5.43
2018-11-14T05:27:19.454Z,3.57
2018-11-14T05:29:46.830Z,5.03
2018-11-14T05:32:14.170Z,6.73
2018-11-14T05:34:41.565Z,7.90
2018-11-14T05:37:08.916Z,10.23
2018-11-14T05:39:36.309Z,20.77
2018-11-14T05:42:03.685Z,66.30
2018-11-14T05:44:31.056Z,82.10
2018-11-14T05:46:58.423Z,46.63
2018-11-14T05:49:25.801Z,52.10
2018-11-14T05:51:53.178Z,59.20
2018-11-14T05:54:20.584Z,63.27
2018-11-14T05:56:47.939Z,28.23
2018-11-14T05:59:15.311Z,43.67
2018-11-14T06:01:42.668Z,31.07
2018-11-14T06:04:10.617Z,30.37
2018-11-14T06:06:37.999Z,27.63
2018-11-14T06:09:07.752Z,24.40
2018-11-14T06:11:35.143Z,16.47
2018-11-14T06:14:02.502Z,23.03
2018-11-14T06:16:29.880Z,19.90
2018-11-14T06:18:57.231Z,20.40
2018-11-14T06:21:24.618Z,18.30
2018-11-14T06:23:51.979Z,18.73
2018-11-14T06:26:19.530Z,30.50
2018-11-14T06:28:46.886Z,15.93
2018-11-14T06:31:14.251Z,14.57
2018-11-14T06:33:41.610Z,25.87
2018-11-14T06:36:09.000Z,15.93
2018-11-14T06:38:36.353Z,16.00
2018-11-14T06:41:03.737Z,7.20
2018-11-14T06:43:31.098Z,14.07
2018-11-14T06:45:59.157Z,12.57
2018-11-14T06:48:26.506Z,13.73
2018-11-14T06:50:53.877Z,11.43
2018-11-14T06:53:21.702Z,8.30
2018-11-14T06:55:49.095Z,6.63
2018-11-14T06:58:16.452Z,12.10
2018-11-14T07:00:43.859Z,13.90
2018-11-14T07:03:11.212Z,10.23
2018-11-14T07:05:38.681Z,8.63
2018-11-14T07:08:06.563Z,9.63
2018-11-14T07:10:35.353Z,12.00
2018-11-14T07:13:05.929Z,9.50
2018-11-14T07:15:33.557Z,10.43
2018-11-14T07:18:01.119Z,8.50
2018-11-14T07:20:29.766Z,4.70
2018-11-14T07:22:57.189Z,7.10
2018-11-14T07:25:24.592Z,9.03
2018-11-14T07:27:51.962Z,5.70
2018-11-14T07:30:20.617Z,4.00
2018-11-14T07:32:49.555Z,4.63
2018-11-14T07:35:17.658Z,6.43
2018-11-14T07:37:47.005Z,9.13
2018-11-14T07:40:14.369Z,8.23
2018-11-14T07:42:42.946Z,5.53
2018-11-14T07:45:11.980Z,3.00
2018-11-14T07:47:39.343Z,14.63
2018-11-14T07:50:08.194Z,5.03
2018-11-14T07:52:35.540Z,4.07
2018-11-14T07:55:02.907Z,4.83
2018-11-14T07:57:30.547Z,7.07
2018-11-14T07:59:58.475Z,10.93
2018-11-14T08:02:25.881Z,4.20
2018-11-14T08:04:53.534Z,3.50
2018-11-14T08:07:20.944Z,6.63
2018-11-14T08:09:48.280Z,3.80
2018-11-14T08:12:15.652Z,5.83
2018-11-14T08:14:43.021Z,4.83
2018-11-14T08:17:10.403Z,5.40
2018-11-14T08:19:37.748Z,4.20
2018-11-14T08:22:05.164Z,5.80
2018-11-14T08:24:32.520Z,3.00
2018-11-14T08:26:59.919Z,6.27
2018-11-14T08:29:27.282Z,11.67
2018-11-14T08:31:54.656Z,3.77
2018-11-14T08:34:22.048Z,3.93
2018-11-14T08:36:49.443Z,4.57
2018-11-14T08:39:16.927Z,2.83
2018-11-14T08:41:44.210Z,6.50
2018-11-14T08:44:11.561Z,7.20
2018-11-14T08:46:38.944Z,3.40
2018-11-14T08:49:06.315Z,3.20
2018-11-14T08:51:34.122Z,5.13
2018-11-14T08:54:01.707Z,4.93
2018-11-14T08:56:29.496Z,5.30
2018-11-14T08:58:56.914Z,5.23
2018-11-14T09:01:24.886Z,10.60
2018-11-14T09:03:52.278Z,3.77
2018-11-14T09:06:19.658Z,4.37
2018-11-14T09:08:47.011Z,4.70
2018-11-14T09:11:14.439Z,3.10
2018-11-14T09:13:42.054Z,7.43
2018-11-14T09:16:09.848Z,3.10
2018-11-14T09:18:37.306Z,4.70
2018-11-14T09:21:05.344Z,5.40
2018-11-14T09:23:32.735Z,3.00
2018-11-14T09:26:00.100Z,4.60
2018-11-14T09:28:27.455Z,4.93
2018-11-14T09:30:55.083Z,3.77
2018-11-14T09:33:22.512Z,5.00
2018-11-14T09:35:49.867Z,2.87
2018-11-14T09:38:17.240Z,2.50
2018-11-14T09:40:44.634Z,4.00
2018-11-14T09:43:12.011Z,3.37
2018-11-14T09:45:39.529Z,3.47
2018-11-14T09:48:06.959Z,3.23
2018-11-14T09:50:34.649Z,4.77
2018-11-14T09:53:04.269Z,6.00
2018-11-14T09:55:31.612Z,2.83
2018-11-14T09:57:58.981Z,4.20
2018-11-14T10:00:28.456Z,3.40
2018-11-14T10:02:57.007Z,3.33
2018-11-14T10:05:24.852Z,4.50
2018-11-14T10:07:52.238Z,3.20
2018-11-14T10:10:20.731Z,3.27
2018-11-14T10:12:48.110Z,2.90
2018-11-14T10:15:16.816Z,3.07
2018-11-14T10:17:44.633Z,3.10
2018-11-14T10:20:13.382Z,4.27
2018-11-14T10:22:41.229Z,3.10
2018-11-14T10:25:08.882Z,5.00
2018-11-14T10:27:36.578Z,2.90
2018-11-14T10:30:04.173Z,2.80
2018-11-14T10:32:31.540Z,3.10
2018-11-14T10:34:58.939Z,3.83
2018-11-14T10:37:26.631Z,2.87
2018-11-14T10:39:54.819Z,3.70
2018-11-14T10:42:22.167Z,2.67
2018-11-14T10:44:49.577Z,5.30
2018-11-14T10:47:17.109Z,2.90
2018-11-14T10:49:44.496Z,4.40
2018-11-14T10:52:11.855Z,3.00
2018-11-14T10:54:39.230Z,2.40
2018-11-14T10:57:06.608Z,2.80
2018-11-14T10:59:34.096Z,4.20
2018-11-14T11:02:07.004Z,8.20
2018-11-14T11:04:39.792Z,2.93
2018-11-14T11:07:12.562Z,4.73
2018-11-14T11:09:45.329Z,2.70
2018-11-14T11:12:17.971Z,3.20
2018-11-14T11:14:50.695Z,5.40
2018-11-14T11:17:32.120Z,3.67
2018-11-14T11:19:59.570Z,3.37
2018-11-14T11:22:26.915Z,3.27
2018-11-14T11:24:54.581Z,3.00
2018-11-14T11:27:21.999Z,3.23
2018-11-14T11:29:49.374Z,2.90
2018-11-14T11:32:16.728Z,3.00
2018-11-14T11:34:44.126Z,2.80
2018-11-14T11:37:11.474Z,4.53
2018-11-14T11:39:38.848Z,2.67
2018-11-14T11:42:06.791Z,3.23
2018-11-14T11:44:34.222Z,2.43
2018-11-14T11:47:01.584Z,2.87
2018-11-14T11:49:28.962Z,2.90
2018-11-14T11:51:56.339Z,2.60
2018-11-14T11:54:23.722Z,3.00
2018-11-14T11:56:51.088Z,2.70
2018-11-14T11:59:18.434Z,3.20
2018-11-14T12:01:45.807Z,2.60
2018-11-14T12:04:13.145Z,2.53
2018-11-14T12:06:40.548Z,2.30
2018-11-14T12:09:08.795Z,2.80
2018-11-14T12:11:36.161Z,5.00
2018-11-14T12:14:04.109Z,2.37
2018-11-14T12:16:31.565Z,2.97
2018-11-14T12:18:58.987Z,3.00
2018-11-14T12:21:26.354Z,3.00
2018-11-14T12:26:15.738Z,2.60
2018-11-14T12:28:43.077Z,3.70
2018-11-14T12:31:10.625Z,3.60
2018-11-14T12:33:37.844Z,6.43
2018-11-14T12:36:05.853Z,2.27
2018-11-14T12:38:33.233Z,4.33
2018-11-14T12:41:00.616Z,4.40
2018-11-14T12:43:28.183Z,2.10
2018-11-14T12:45:55.787Z,3.10
2018-11-14T12:48:23.243Z,3.97
2018-11-14T12:50:50.613Z,2.52
2018-11-14T12:53:17.966Z,3.90
2018-11-14T12:55:45.352Z,3.33
2018-11-14T12:58:12.696Z,2.60
2018-11-14T13:00:40.060Z,2.70
2018-11-14T13:03:07.733Z,5.13
2018-11-14T13:05:35.111Z,2.60
2018-11-14T13:08:02.470Z,2.70
2018-11-14T13:10:29.843Z,2.37
2018-11-14T13:12:57.181Z,4.90
2018-11-14T13:15:24.551Z,5.33
2018-11-14T13:17:51.905Z,3.50
2018-11-14T13:20:20.785Z,2.80
2018-11-14T13:22:48.191Z,2.93
2018-11-14T13:25:16.054Z,3.00
2018-11-14T13:27:44.620Z,3.07
2018-11-14T13:30:13.620Z,3.33
2018-11-14T13:32:40.971Z,2.20
2018-11-14T13:35:09.888Z,4.60
2018-11-14T13:37:37.209Z,2.30
2018-11-14T13:40:05.380Z,3.37
2018-11-14T13:42:32.735Z,2.57
2018-11-14T13:45:00.092Z,3.23
2018-11-14T13:47:27.642Z,2.87
2018-11-14T13:49:55.143Z,2.40
2018-11-14T13:52:22.377Z,2.27
2018-11-14T13:54:49.758Z,3.20
2018-11-14T13:57:17.135Z,2.30
2018-11-14T13:59:44.506Z,2.33
2018-11-14T14:02:11.871Z,3.00
2018-11-14T14:04:39.214Z,2.37
2018-11-14T14:07:06.615Z,2.50
2018-11-14T14:09:34.008Z,2.43
2018-11-14T14:12:01.350Z,3.33
2018-11-14T14:14:28.687Z,3.70
2018-11-14T14:16:56.048Z,3.00
2018-11-14T14:19:23.674Z,2.70
2018-11-14T14:21:51.181Z,2.63
2018-11-14T14:24:18.516Z,2.80
2018-11-14T14:26:45.923Z,2.33
2018-11-14T14:29:13.566Z,1.90
2018-11-14T14:31:40.980Z,2.33
2018-11-14T14:34:08.735Z,2.60
2018-11-14T14:36:36.314Z,3.67
2018-11-14T14:39:04.752Z,3.10
2018-11-14T14:41:32.103Z,2.40
2018-11-14T14:43:59.753Z,2.80
2018-11-14T14:46:27.124Z,1.87
2018-11-14T14:48:54.554Z,5.53
2018-11-14T14:51:21.893Z,2.33
2018-11-14T14:53:49.245Z,3.40
2018-11-14T14:56:16.642Z,2.03
2018-11-14T14:58:43.995Z,2.20
2018-11-14T15:01:11.352Z,3.33
2018-11-14T15:03:38.745Z,3.00
2018-11-14T15:06:06.328Z,2.10
2018-11-14T15:08:33.672Z,2.40
2018-11-14T15:11:01.071Z,2.63
2018-11-14T15:13:28.418Z,3.10
2018-11-14T15:15:55.795Z,2.80
2018-11-14T15:18:23.159Z,2.63
2018-11-14T15:20:50.565Z,2.80
2018-11-14T15:23:17.916Z,3.33
2018-11-14T15:25:45.250Z,2.40
2018-11-14T15:28:12.624Z,2.03
2018-11-14T15:30:40.135Z,2.30
2018-11-14T15:33:07.677Z,2.00
2018-11-14T15:35:35.021Z,2.33
2018-11-14T15:38:02.976Z,3.10
2018-11-14T15:40:30.336Z,2.40
2018-11-14T15:42:57.904Z,2.50
2018-11-14T15:45:26.639Z,2.93
2018-11-14T15:47:54.481Z,3.20
2018-11-14T15:50:23.114Z,2.77
2018-11-14T15:52:51.396Z,2.93
2018-11-14T15:55:19.569Z,2.67
2018-11-14T15:57:46.966Z,2.70
2018-11-14T16:00:16.151Z,3.50
2018-11-14T16:02:43.520Z,2.43
2018-11-14T16:05:12.618Z,2.40
2018-11-14T16:07:40.945Z,4.03
2018-11-14T16:10:08.995Z,3.00
2018-11-14T16:12:37.130Z,3.50
2018-11-14T16:15:04.711Z,3.17
2018-11-14T16:17:32.276Z,2.50
2018-11-14T16:20:00.365Z,3.00
2018-11-14T16:22:27.748Z,3.13
2018-11-14T16:24:55.103Z,2.83
2018-11-14T16:27:22.507Z,3.23
2018-11-14T16:29:49.846Z,6.20
2018-11-14T16:32:17.376Z,2.30
2018-11-14T16:34:44.756Z,2.73
2018-11-14T16:37:12.107Z,4.07
2018-11-14T16:39:39.449Z,3.00
2018-11-14T16:42:07.254Z,4.43
2018-11-14T16:44:34.657Z,3.03
2018-11-14T16:47:02.036Z,2.70
2018-11-14T16:49:29.507Z,2.67
2018-11-14T16:51:56.900Z,3.67
2018-11-14T16:54:24.266Z,4.40
2018-11-14T16:56:51.788Z,3.30
2018-11-14T16:59:19.140Z,3.10
2018-11-14T17:01:46.520Z,2.50
2018-11-14T17:04:14.035Z,3.13
2018-11-14T17:06:41.403Z,3.60
2018-11-14T17:09:09.391Z,3.70
2018-11-14T17:11:36.802Z,4.23
2018-11-14T17:14:04.259Z,4.10
2018-11-14T17:16:31.864Z,6.57
2018-11-14T17:18:59.208Z,5.67
2018-11-14T17:21:26.564Z,4.00
2018-11-14T17:23:53.933Z,6.57
2018-11-14T17:26:21.348Z,5.00
2018-11-14T17:28:48.655Z,3.53
2018-11-14T17:31:16.287Z,3.80
2018-11-14T17:33:43.687Z,4.37
2018-11-14T17:36:11.098Z,3.60
2018-11-14T17:38:38.408Z,5.43
2018-11-14T17:41:06.131Z,6.17
2018-11-14T17:43:33.605Z,4.07
2018-11-14T17:46:00.945Z,3.67
2018-11-14T17:48:28.467Z,14.23
2018-11-14T17:50:55.851Z,14.00
2018-11-14T17:53:23.212Z,6.97
2018-11-14T17:55:50.573Z,7.90
2018-11-14T17:58:17.963Z,7.50
2018-11-14T18:00:45.353Z,13.43
2018-11-14T18:03:12.820Z,7.00
2018-11-14T18:05:40.060Z,5.20
2018-11-14T18:08:07.462Z,4.63
2018-11-14T18:10:34.844Z,3.50
2018-11-14T18:13:02.617Z,12.03
2018-11-14T18:15:30.102Z,12.23
2018-11-14T18:17:57.815Z,7.07
2018-11-14T18:20:27.408Z,6.80
2018-11-14T18:22:54.944Z,11.80
2018-11-14T18:25:22.330Z,12.30
2018-11-14T18:27:49.686Z,4.60
2018-11-14T18:30:21.307Z,6.33
2018-11-14T18:32:48.991Z,12.30
2018-11-14T18:35:17.539Z,7.07
2018-11-14T18:37:45.596Z,8.10
2018-11-14T18:40:15.180Z,15.90
2018-11-14T18:42:42.524Z,7.60
2018-11-14T18:45:12.478Z,9.00
2018-11-14T18:47:40.885Z,4.83
2018-11-14T18:50:08.782Z,7.13
2018-11-14T18:52:36.127Z,9.97
2018-11-14T18:55:03.991Z,11.30
2018-11-14T18:57:31.351Z,7.80
2018-11-14T18:59:58.732Z,8.87
2018-11-14T19:02:26.147Z,13.93
2018-11-14T19:04:53.555Z,7.87
2018-11-14T19:07:20.916Z,9.17
2018-11-14T19:09:48.356Z,5.73
2018-11-14T19:12:15.923Z,7.33
2018-11-14T19:14:43.275Z,11.00
2018-11-14T19:17:10.731Z,6.40
2018-11-14T19:19:38.104Z,5.83
2018-11-14T19:22:05.471Z,7.37
2018-11-14T19:24:32.884Z,7.20
2018-11-14T19:27:00.245Z,15.07
2018-11-14T19:29:27.960Z,14.67
2018-11-14T19:31:55.306Z,9.93
2018-11-14T19:34:22.724Z,9.13
2018-11-14T19:36:50.176Z,5.80
2018-11-14T19:39:17.541Z,16.17
2018-11-14T19:41:44.880Z,7.57
2018-11-14T19:44:12.239Z,12.03
2018-11-14T19:46:39.616Z,10.80
2018-11-14T19:49:07.001Z,13.27
2018-11-14T19:51:34.356Z,10.63
2018-11-14T19:54:01.748Z,3.83
2018-11-14T19:56:29.322Z,10.83
2018-11-14T19:58:56.696Z,10.00
2018-11-14T20:01:24.029Z,8.03
2018-11-14T20:03:51.615Z,3.90
2018-11-14T20:06:19.016Z,7.87
2018-11-14T20:08:46.375Z,8.83
2018-11-14T20:11:14.035Z,8.50
2018-11-14T20:13:41.399Z,10.17
2018-11-14T20:16:08.791Z,5.40
2018-11-14T20:18:36.167Z,6.10
2018-11-14T20:21:03.807Z,7.10
2018-11-14T20:23:31.141Z,6.20
2018-11-14T20:25:58.620Z,8.70
2018-11-14T20:28:25.916Z,6.80
2018-11-14T20:30:53.272Z,5.87
2018-11-14T20:33:20.834Z,8.57
2018-11-14T20:35:48.336Z,9.83
2018-11-14T20:38:16.616Z,11.00
2018-11-14T20:40:44.270Z,9.90
2018-11-14T20:43:11.759Z,5.83
2018-11-14T20:45:39.148Z,7.20
2018-11-14T20:48:06.515Z,5.63
2018-11-14T20:50:33.871Z,2.73
2018-11-14T20:53:02.252Z,12.13
2018-11-14T20:55:30.083Z,5.93
2018-11-14T20:57:57.760Z,5.57
2018-11-14T21:00:26.619Z,5.87
2018-11-14T21:02:54.091Z,2.93
2018-11-14T21:05:21.507Z,3.97
2018-11-14T21:07:49.029Z,5.63
2018-11-14T21:10:17.706Z,10.87
2018-11-14T21:12:45.560Z,3.30
2018-11-14T21:15:15.294Z,10.23
2018-11-14T21:17:42.984Z,4.37
2018-11-14T21:20:10.659Z,9.10
2018-11-14T21:22:38.444Z,6.83
2018-11-14T21:25:06.860Z,7.90
2018-11-14T21:27:35.283Z,4.60
2018-11-14T21:30:03.075Z,3.53
2018-11-14T21:32:30.607Z,28.60
2018-11-14T21:34:58.152Z,9.50
2018-11-14T21:37:25.551Z,9.80
2018-11-14T21:39:52.948Z,9.20
2018-11-14T21:42:20.371Z,4.23
2018-11-14T21:44:47.941Z,3.50
2018-11-14T21:47:15.300Z,13.40
2018-11-14T21:49:42.745Z,10.13
2018-11-14T21:52:10.236Z,9.63
2018-11-14T21:54:37.775Z,4.57
2018-11-14T21:57:06.331Z,6.87
2018-11-14T21:59:39.048Z,5.17
2018-11-14T22:02:09.801Z,9.67
2018-11-14T22:04:38.589Z,8.63
2018-11-14T22:07:06.220Z,7.57
2018-11-14T22:09:34.104Z,7.30
2018-11-14T22:12:01.448Z,4.90
2018-11-14T22:14:28.920Z,2.70
2018-11-14T22:16:56.269Z,6.30
2018-11-14T22:19:23.738Z,4.07
2018-11-14T22:21:51.068Z,8.40
2018-11-14T22:24:18.511Z,5.97
2018-11-14T22:26:45.890Z,7.50
2018-11-14T22:29:13.521Z,7.70
2018-11-14T22:31:41.016Z,3.45
2018-11-14T22:34:08.590Z,8.23
2018-11-14T22:36:36.583Z,3.03
2018-11-14T22:39:05.623Z,4.70
2018-11-14T22:41:33.190Z,11.57
2018-11-14T22:44:00.528Z,3.50
2018-11-14T22:46:27.913Z,12.53
2018-11-14T22:48:55.284Z,7.73
2018-11-14T22:51:22.652Z,5.83
2018-11-14T22:53:50.003Z,8.47
2018-11-14T22:56:17.406Z,2.83
2018-11-14T22:58:44.890Z,7.20
2018-11-14T23:01:12.359Z,6.43
2018-11-14T23:03:39.791Z,9.70
2018-11-14T23:06:07.448Z,5.10
2018-11-14T23:08:35.188Z,3.50
2018-11-14T23:11:02.571Z,6.67
2018-11-14T23:13:29.910Z,5.70
2018-11-14T23:15:57.274Z,6.37
2018-11-14T23:18:24.615Z,4.77
2018-11-14T23:20:51.977Z,7.70
2018-11-14T23:23:19.387Z,5.23
2018-11-14T23:25:46.793Z,7.03
2018-11-14T23:28:14.151Z,3.83
2018-11-14T23:30:41.695Z,8.23
2018-11-14T23:33:09.269Z,4.17
2018-11-14T23:35:36.946Z,3.37
2018-11-14T23:38:05.832Z,6.20
2018-11-14T23:40:33.249Z,3.07
2018-11-14T23:43:00.599Z,4.57
2018-11-14T23:45:28.643Z,5.63
2018-11-14T23:47:55.979Z,8.23
2018-11-14T23:50:24.923Z,5.20
2018-11-14T23:52:53.245Z,5.97
2018-11-14T23:55:21.272Z,4.63
2018-11-14T23:57:48.670Z,4.43
